Oxelosund, Sweden
Current Conditions -  °F | °C
As of 9:20 PM on Saturday 25 Oct 2014 (Local Time) from ESKN Reporting Station
Broken Clouds Broken Clouds  
Wind Chill: 10°   Ceiling: 800
Heat Index: 10°   Visibility: 6mi
Dew Point:   Wind: 9mph
Humidity: 87%   Direction: 180°S
Pressure: 29.97"   Gusts: NA
Location:  58.67°N, 17.1°E
Report Text: ESKN 251920Z 18008KT 150V210 9999 BKN008 10/08 Q1015
Loading
Personal Weather Stations






























Interactive Weather Map
Tropical Storm Tracking
New forecast layout! Learn more

10-Day Weather Forecast

Advertisements
Track Severe Weather on mobile